首页
METAR-TAF:

METAR-TAF

机场 :

Edson, 艾伯塔, 加拿大

纬度: 53-35N, 经度: 116-28W, 海拔: 921米

当前天气观测

该预报发布于1小时和1分钟前的21:00 UTC
风速2节,风向多变
温度 18°C
湿度 28%
气压 1019 hPa
能見度: 14.5公里
天空无云

METAR: CYET 262100Z AUTO VRB02KT 9SM CLR 18/M01 A3008 RMK SLP202 DENSITY ALT 3900FT

时间: 16:01 (22:01 UTC)


TAF: 丢失

超过4000个机场的气象观测和天气预报(METAR&TAF报告)。

可查询的气象台以黄色和红色小点在地图上表示。

将鼠标移到小点上方,可查看气象台名称。

然后点击查看天气观测和预报。

如需切换地图:点击带黑十字的绿色按钮放大地图;点击带横线的绿色按钮缩小地图;或者点击绿色箭头查看邻近地区的地图。


METAR-TAF: